Baianopolis, Brazil
Current Conditions -  °F | °C
As of 1:30 PM on Tuesday 21 Oct 2014 (Local Time) from SBPJ Reporting Station
Thunderstorm Thunderstorm  
Wind Chill: 91°   Ceiling: Unl
Heat Index: 97°   Visibility: 6mi
Dew Point: 70°   Wind: 8mph
Humidity: 49%   Direction: 250°WSW
Pressure: 29.8"   Gusts: NA
Location:  12.31°S, 44.53°W
Report Text: SBPJ 211630Z 25007KT 9999 TS FEW030 FEW035CB 33/21 Q1009
Loading
Personal Weather Stations






























Interactive Weather Map
Tropical Storm Tracking
New forecast layout! Learn more

10-Day Weather Forecast

Advertisements
Track Severe Weather on mobile